EDLI 222204Z 06001KT 9999 ///038 13/13 Q1016

Wind aktuell: 040° mit 1 kt

Wind 10 Minuten extrem:

030° bis 110° mit 1 kt bis 1 kt

Seitenwindkomponente: -0.5 kt

Wolkengrenze 1: 3800

Wolkengrenze 2: 4700

Wolkengrenze 3: keine

Sichtweite: 20.000 Meter

Vorheriges Wetter:

Aktuelles Wetter:

Druckhöhe: 373 ft

Dichtehöhe: 271 ft

Temperatur: 13.4 °C

Taupunkt: 13.0 °C

Luftfeuchtigkeit: 97%

QNH: 1016 hPa 

QFE: 1000 hPa

Diese Daten werden automatisch ermittelt bzw. übertragen und sind nicht geprüft. Für die Richtigkeit wird daher keine Gewähr übernommen. Sie ersetzen im übrigen nicht die Flugwetterberatung. Alle Zeitangaben beziehen sich auf UTC. Die Seite wird einmal die Minute aktualisiert! Sollten Sie ein ältere Seite haben, so drücken Sie bitte auf den Reload Button Ihres Browsers!